Springbrook, IA (52075)

7:57 AM CST on November 21, 2017 (GMT -0600)
rural Iowa | | Change Station
Active Advisory: Special Statement

Elev 745 ft 42.11 °N, 90.65 °W | Updated 31 seconds ago

Overcast
Overcast
38.7 °F
Feels Like 39 °F
N
2.0
Wind Variable Wind from West

Today
High -- | Low -- °F
--% Chance of Precip.
Yesterday
High -- | Low -- °F
Precip. -- in
Pressure 29.82 in
Visibility 10.0 miles
Clouds Overcast 10000 ft
Windchill 39 °F
Dew Point 17 °F
Humidity 41%
Rainfall 0.00 in
Snow Depth Not available.
6:59 AM 4:35 PM
Waxing Crescent, 8% visible
METAR KDBQ 211353Z 32015G25KT 10SM OVC100 02/M09 A2980 RMK AO2 PK WND 31030/1317 PRESRR SLP097 T00171089
Pressure 29.82 in
Visibility 10.0 miles
Clouds Overcast 10000 ft
Windchill 39 °F
Dew Point 17 °F
Humidity 41%
Rainfall 0.00 in
Snow Depth Not available.
6:59 AM 4:35 PM
Waxing Crescent, 8% visible
METAR KDBQ 211353Z 32015G25KT 10SM OVC100 02/M09 A2980 RMK AO2 PK WND 31030/1317 PRESRR SLP097 T00171089

Get Your Daily Forecast Email!

Thanks for signing up!

Be on the lookout for a verification email in your inbox.

You'll start receiving severe weather alerts in your inbox..

×

10-Day Weather Forecast

Almanac

Astronomy

Nov. 21, 2017 Rise Set
Actual Time
Civil Twilight
Nautical Twilight
Astronomical Twilight
Moon
Length of Visible Light
Length of Day
Tomorrow will be .
, % of the Moon is Illuminated

Today's Extremes

State Highs State Lows

Community

WunderPhotos

Category 6

Welcome to Category 6. This is the collective home for Weather Underground's featured writeups by Dr. Jeff Masters (right), Bob Henson (left), Chris Burt, and other regular contributors.

Nearby

Air Quality

  Air Quality AQ Index Pollutant
Not available.

Snow Depth

Station Depth Elevation

Earthquake Activity

City Distance Mag. Time & Date
Minimum magnitude displayed is 2.5.

Coastal Water Temperatures

Place Temperature

Stations

Nearby Weather Stations

Station Location Temp. Windchill Dew Point Humidity Wind Precip. Elev Updated Type
                   

Watches & Warnings

Special Statement
Issued: 7:30 AM CST Nov. 21, 2017 – National Weather Service

... Gusty winds during the morning commute...

Brief wind gusts around 45 mph from the northwest will occur with
the passage of a cold front this morning. Motorists should
exercise caution, especially on north to south roads, and keep
both hands on the wheel.


Rp Kinney


730 am CST Tue Nov 21 2017

... Gusty winds during the morning commute...

Brief wind gusts around 45 mph from the northwest will occur with
the passage of a cold front this morning. Motorists should
exercise caution, especially on north to south roads, and keep
both hands on the wheel.


Rp Kinney